Miltona, Minnesota
Current Conditions -  °F | °C
As of 6:53 AM on Saturday 25 Oct 2014 (Local Time) from KAXN Reporting Station
Clear Clear  
Wind Chill: 40°   Ceiling: Unl
Heat Index: 44°   Visibility: 10mi
Dew Point: 33°   Wind: 8mph
Humidity: 65%   Direction: 290°WNW
Pressure: 30.05"   Gusts: NA
Location:  46.04°N, 95.29°W
Report Text: KAXN 251153Z AUTO 29007KT 10SM CLR 07/01 A3005 RMK AO2 SLP181 T00670006 10139 20067 53011
Loading
Personal Weather Stations






























Interactive Weather Map New forecast layout! Learn more

10-Day Weather Forecast

Advertisements
Track Severe Weather on mobile